sensor_id;sensor_type;location;lat;lon;timestamp;P1;durP1;ratioP1;P2;durP2;ratioP2
22064;SDS011;11197;53.110;8.468;2022-09-20T00:03:39;9.38;;;1.38;;
22064;SDS011;11197;53.110;8.468;2022-09-20T00:06:09;10.60;;;1.70;;
22064;SDS011;11197;53.110;8.468;2022-09-20T00:08:37;10.48;;;1.50;;
22064;SDS011;11197;53.110;8.468;2022-09-20T00:11:05;9.13;;;1.40;;
22064;SDS011;11197;53.110;8.468;2022-09-20T00:13:34;6.68;;;1.27;;
22064;SDS011;11197;53.110;8.468;2022-09-20T00:16:06;8.77;;;1.40;;
22064;SDS011;11197;53.110;8.468;2022-09-20T00:18:34;5.88;;;0.88;;
22064;SDS011;11197;53.110;8.468;2022-09-20T00:21:01;7.68;;;1.30;;
22064;SDS011;11197;53.110;8.468;2022-09-20T00:23:28;7.95;;;1.30;;
22064;SDS011;11197;53.110;8.468;2022-09-20T00:25:55;6.47;;;1.20;;
22064;SDS011;11197;53.110;8.468;2022-09-20T00:28:22;7.28;;;1.10;;
22064;SDS011;11197;53.110;8.468;2022-09-20T00:30:48;9.50;;;1.73;;
22064;SDS011;11197;53.110;8.468;2022-09-20T00:33:16;8.95;;;1.27;;
22064;SDS011;11197;53.110;8.468;2022-09-20T00:35:43;6.57;;;1.10;;
22064;SDS011;11197;53.110;8.468;2022-09-20T00:38:10;6.47;;;1.45;;
22064;SDS011;11197;53.110;8.468;2022-09-20T00:40:38;8.50;;;1.20;;
22064;SDS011;11197;53.110;8.468;2022-09-20T00:43:15;7.47;;;1.50;;
22064;SDS011;11197;53.110;8.468;2022-09-20T00:45:42;7.55;;;1.20;;
22064;SDS011;11197;53.110;8.468;2022-09-20T00:50:48;9.07;;;1.35;;
22064;SDS011;11197;53.110;8.468;2022-09-20T00:53:20;8.48;;;1.35;;
22064;SDS011;11197;53.110;8.468;2022-09-20T00:56:03;11.93;;;1.50;;
22064;SDS011;11197;53.110;8.468;2022-09-20T00:59:10;8.93;;;1.45;;
22064;SDS011;11197;53.110;8.468;2022-09-20T01:01:57;7.32;;;1.17;;
22064;SDS011;11197;53.110;8.468;2022-09-20T01:04:27;7.78;;;1.30;;
22064;SDS011;11197;53.110;8.468;2022-09-20T01:06:55;7.07;;;1.65;;
22064;SDS011;11197;53.110;8.468;2022-09-20T01:09:25;6.53;;;1.30;;
22064;SDS011;11197;53.110;8.468;2022-09-20T01:11:51;12.38;;;1.58;;
22064;SDS011;11197;53.110;8.468;2022-09-20T01:14:20;10.43;;;1.63;;
22064;SDS011;11197;53.110;8.468;2022-09-20T01:16:48;12.52;;;1.50;;
22064;SDS011;11197;53.110;8.468;2022-09-20T01:22:42;8.80;;;1.48;;
22064;SDS011;11197;53.110;8.468;2022-09-20T01:25:28;6.38;;;1.25;;
22064;SDS011;11197;53.110;8.468;2022-09-20T01:28:30;8.55;;;1.40;;
22064;SDS011;11197;53.110;8.468;2022-09-20T01:33:27;6.75;;;1.40;;
22064;SDS011;11197;53.110;8.468;2022-09-20T01:36:01;12.23;;;1.77;;
22064;SDS011;11197;53.110;8.468;2022-09-20T01:38:49;11.45;;;1.42;;
22064;SDS011;11197;53.110;8.468;2022-09-20T01:41:36;6.75;;;1.60;;
22064;SDS011;11197;53.110;8.468;2022-09-20T01:46:43;10.65;;;1.60;;
22064;SDS011;11197;53.110;8.468;2022-09-20T01:49:19;10.85;;;1.33;;
22064;SDS011;11197;53.110;8.468;2022-09-20T01:54:48;8.23;;;1.50;;
22064;SDS011;11197;53.110;8.468;2022-09-20T01:58:01;8.02;;;1.45;;
22064;SDS011;11197;53.110;8.468;2022-09-20T02:06:22;9.60;;;1.60;;
22064;SDS011;11197;53.110;8.468;2022-09-20T02:14:44;7.85;;;1.50;;
22064;SDS011;11197;53.110;8.468;2022-09-20T02:39:35;8.05;;;1.30;;
22064;SDS011;11197;53.110;8.468;2022-09-20T02:47:38;8.27;;;1.52;;
22064;SDS011;11197;53.110;8.468;2022-09-20T02:53:07;8.52;;;1.50;;
22064;SDS011;11197;53.110;8.468;2022-09-20T02:58:19;9.07;;;1.40;;
22064;SDS011;11197;53.110;8.468;2022-09-20T03:17:59;8.35;;;1.45;;
22064;SDS011;11197;53.110;8.468;2022-09-20T03:25:59;6.85;;;1.30;;
22064;SDS011;11197;53.110;8.468;2022-09-20T03:28:52;9.77;;;1.33;;
22064;SDS011;11197;53.110;8.468;2022-09-20T03:40:02;9.88;;;1.52;;
22064;SDS011;11197;53.110;8.468;2022-09-20T03:42:40;10.48;;;1.70;;
22064;SDS011;11197;53.110;8.468;2022-09-20T03:47:59;6.10;;;1.30;;
22064;SDS011;11197;53.110;8.468;2022-09-20T04:04:35;10.38;;;1.92;;
22064;SDS011;11197;53.110;8.468;2022-09-20T04:15:50;9.65;;;1.50;;
22064;SDS011;11197;53.110;8.468;2022-09-20T04:18:51;7.90;;;1.60;;
22064;SDS011;11197;53.110;8.468;2022-09-20T04:26:46;8.43;;;1.60;;
22064;SDS011;11197;53.110;8.468;2022-09-20T04:32:23;6.32;;;1.35;;
22064;SDS011;11197;53.110;8.468;2022-09-20T04:37:40;8.00;;;1.63;;
22064;SDS011;11197;53.110;8.468;2022-09-20T05:13:24;9.48;;;1.50;;
22064;SDS011;11197;53.110;8.468;2022-09-20T05:15:56;5.57;;;1.45;;
22064;SDS011;11197;53.110;8.468;2022-09-20T05:21:27;10.18;;;1.40;;
22064;SDS011;11197;53.110;8.468;2022-09-20T05:27:40;7.00;;;1.30;;
22064;SDS011;11197;53.110;8.468;2022-09-20T05:30:38;6.75;;;1.17;;
22064;SDS011;11197;53.110;8.468;2022-09-20T05:35:55;6.18;;;1.48;;
22064;SDS011;11197;53.110;8.468;2022-09-20T05:46:36;6.63;;;1.30;;
22064;SDS011;11197;53.110;8.468;2022-09-20T06:01:03;7.43;;;1.38;;
22064;SDS011;11197;53.110;8.468;2022-09-20T06:03:44;4.72;;;1.13;;
22064;SDS011;11197;53.110;8.468;2022-09-20T06:15:02;6.63;;;1.52;;
22064;SDS011;11197;53.110;8.468;2022-09-20T06:20:41;8.32;;;1.58;;
22064;SDS011;11197;53.110;8.468;2022-09-20T06:23:11;10.02;;;2.20;;
22064;SDS011;11197;53.110;8.468;2022-09-20T06:25:43;6.63;;;2.30;;
22064;SDS011;11197;53.110;8.468;2022-09-20T06:28:28;9.13;;;2.25;;
22064;SDS011;11197;53.110;8.468;2022-09-20T06:30:59;6.13;;;2.58;;
22064;SDS011;11197;53.110;8.468;2022-09-20T06:33:30;9.25;;;2.58;;
22064;SDS011;11197;53.110;8.468;2022-09-20T06:38:57;6.85;;;2.47;;
22064;SDS011;11197;53.110;8.468;2022-09-20T06:41:57;8.13;;;2.75;;
22064;SDS011;11197;53.110;8.468;2022-09-20T06:44:24;9.25;;;2.88;;
22064;SDS011;11197;53.110;8.468;2022-09-20T06:46:50;10.25;;;2.60;;
22064;SDS011;11197;53.110;8.468;2022-09-20T06:49:20;10.48;;;2.63;;
22064;SDS011;11197;53.110;8.468;2022-09-20T06:51:48;10.40;;;2.30;;
22064;SDS011;11197;53.110;8.468;2022-09-20T06:54:16;7.97;;;2.17;;
22064;SDS011;11197;53.110;8.468;2022-09-20T06:56:44;8.23;;;2.17;;
22064;SDS011;11197;53.110;8.468;2022-09-20T06:59:11;6.82;;;1.67;;
22064;SDS011;11197;53.110;8.468;2022-09-20T07:01:40;7.72;;;1.90;;
22064;SDS011;11197;53.110;8.468;2022-09-20T07:04:07;9.10;;;2.00;;
22064;SDS011;11197;53.110;8.468;2022-09-20T07:06:36;7.43;;;2.00;;
22064;SDS011;11197;53.110;8.468;2022-09-20T07:09:02;7.25;;;2.08;;
22064;SDS011;11197;53.110;8.468;2022-09-20T07:11:30;7.65;;;2.00;;
22064;SDS011;11197;53.110;8.468;2022-09-20T07:13:58;8.73;;;1.90;;
22064;SDS011;11197;53.110;8.468;2022-09-20T07:16:24;8.68;;;1.95;;
22064;SDS011;11197;53.110;8.468;2022-09-20T07:18:50;6.13;;;1.73;;
22064;SDS011;11197;53.110;8.468;2022-09-20T07:21:18;6.90;;;1.98;;
22064;SDS011;11197;53.110;8.468;2022-09-20T07:23:45;7.28;;;2.22;;
22064;SDS011;11197;53.110;8.468;2022-09-20T07:26:22;15.32;;;2.20;;
22064;SDS011;11197;53.110;8.468;2022-09-20T07:28:51;8.35;;;2.10;;
22064;SDS011;11197;53.110;8.468;2022-09-20T07:31:19;7.65;;;2.10;;
22064;SDS011;11197;53.110;8.468;2022-09-20T07:33:47;9.15;;;2.00;;
22064;SDS011;11197;53.110;8.468;2022-09-20T07:36:13;11.90;;;2.13;;
22064;SDS011;11197;53.110;8.468;2022-09-20T07:38:41;7.30;;;1.80;;
22064;SDS011;11197;53.110;8.468;2022-09-20T07:41:08;9.75;;;1.98;;
22064;SDS011;11197;53.110;8.468;2022-09-20T07:43:35;9.55;;;2.28;;
22064;SDS011;11197;53.110;8.468;2022-09-20T07:46:01;7.80;;;2.20;;
22064;SDS011;11197;53.110;8.468;2022-09-20T07:48:29;10.20;;;2.47;;
22064;SDS011;11197;53.110;8.468;2022-09-20T07:51:00;7.88;;;2.30;;
22064;SDS011;11197;53.110;8.468;2022-09-20T07:53:29;9.38;;;2.63;;
22064;SDS011;11197;53.110;8.468;2022-09-20T07:55:56;8.68;;;2.38;;
22064;SDS011;11197;53.110;8.468;2022-09-20T07:58:22;8.23;;;2.20;;
22064;SDS011;11197;53.110;8.468;2022-09-20T08:00:55;7.28;;;2.28;;
22064;SDS011;11197;53.110;8.468;2022-09-20T08:03:23;8.57;;;2.13;;
22064;SDS011;11197;53.110;8.468;2022-09-20T08:05:50;12.25;;;2.63;;
22064;SDS011;11197;53.110;8.468;2022-09-20T08:08:16;7.82;;;2.13;;
22064;SDS011;11197;53.110;8.468;2022-09-20T08:10:43;10.82;;;2.63;;
22064;SDS011;11197;53.110;8.468;2022-09-20T08:13:11;9.20;;;2.25;;
22064;SDS011;11197;53.110;8.468;2022-09-20T08:15:38;8.73;;;2.80;;
22064;SDS011;11197;53.110;8.468;2022-09-20T08:18:05;9.57;;;2.70;;
22064;SDS011;11197;53.110;8.468;2022-09-20T08:20:36;14.75;;;2.67;;
22064;SDS011;11197;53.110;8.468;2022-09-20T08:23:03;7.13;;;2.15;;
22064;SDS011;11197;53.110;8.468;2022-09-20T08:25:30;10.13;;;2.45;;
22064;SDS011;11197;53.110;8.468;2022-09-20T08:27:56;9.45;;;2.35;;
22064;SDS011;11197;53.110;8.468;2022-09-20T08:30:22;9.55;;;2.20;;
22064;SDS011;11197;53.110;8.468;2022-09-20T08:32:48;9.10;;;2.22;;
22064;SDS011;11197;53.110;8.468;2022-09-20T08:35:14;9.25;;;1.90;;
22064;SDS011;11197;53.110;8.468;2022-09-20T08:37:42;9.30;;;1.90;;
22064;SDS011;11197;53.110;8.468;2022-09-20T08:40:12;10.05;;;2.00;;
22064;SDS011;11197;53.110;8.468;2022-09-20T08:42:42;7.57;;;1.80;;
22064;SDS011;11197;53.110;8.468;2022-09-20T08:45:18;6.32;;;1.52;;
22064;SDS011;11197;53.110;8.468;2022-09-20T08:47:48;6.95;;;1.83;;
22064;SDS011;11197;53.110;8.468;2022-09-20T08:52:48;7.15;;;1.80;;
22064;SDS011;11197;53.110;8.468;2022-09-20T08:55:20;7.63;;;1.60;;
22064;SDS011;11197;53.110;8.468;2022-09-20T08:57:57;7.82;;;1.60;;
22064;SDS011;11197;53.110;8.468;2022-09-20T09:00:25;9.00;;;1.90;;
22064;SDS011;11197;53.110;8.468;2022-09-20T09:02:57;7.00;;;1.58;;
22064;SDS011;11197;53.110;8.468;2022-09-20T09:08:16;7.18;;;1.35;;
22064;SDS011;11197;53.110;8.468;2022-09-20T09:11:04;6.75;;;1.35;;
22064;SDS011;11197;53.110;8.468;2022-09-20T09:16:10;5.05;;;0.82;;
22064;SDS011;11197;53.110;8.468;2022-09-20T09:18:40;5.03;;;1.17;;
22064;SDS011;11197;53.110;8.468;2022-09-20T09:21:08;3.90;;;0.73;;
22064;SDS011;11197;53.110;8.468;2022-09-20T09:23:44;6.00;;;1.10;;
22064;SDS011;11197;53.110;8.468;2022-09-20T09:26:18;8.13;;;1.00;;
22064;SDS011;11197;53.110;8.468;2022-09-20T09:31:39;5.70;;;1.08;;
22064;SDS011;11197;53.110;8.468;2022-09-20T09:34:21;7.38;;;1.10;;
22064;SDS011;11197;53.110;8.468;2022-09-20T09:36:55;5.78;;;1.20;;
22064;SDS011;11197;53.110;8.468;2022-09-20T09:39:24;7.82;;;1.45;;
22064;SDS011;11197;53.110;8.468;2022-09-20T09:41:58;7.07;;;1.73;;
22064;SDS011;11197;53.110;8.468;2022-09-20T09:44:29;6.00;;;1.48;;
22064;SDS011;11197;53.110;8.468;2022-09-20T09:46:59;3.60;;;1.27;;
22064;SDS011;11197;53.110;8.468;2022-09-20T09:49:27;6.18;;;1.30;;
22064;SDS011;11197;53.110;8.468;2022-09-20T09:54:32;5.75;;;1.20;;
22064;SDS011;11197;53.110;8.468;2022-09-20T10:02:49;4.57;;;1.00;;
22064;SDS011;11197;53.110;8.468;2022-09-20T10:17:21;5.70;;;1.08;;
22064;SDS011;11197;53.110;8.468;2022-09-20T10:45:26;5.05;;;0.80;;
22064;SDS011;11197;53.110;8.468;2022-09-20T10:59:04;5.00;;;0.60;;
22064;SDS011;11197;53.110;8.468;2022-09-20T11:02:08;3.90;;;0.70;;
22064;SDS011;11197;53.110;8.468;2022-09-20T11:10:19;3.58;;;0.63;;
22064;SDS011;11197;53.110;8.468;2022-09-20T11:12:58;5.13;;;0.98;;
22064;SDS011;11197;53.110;8.468;2022-09-20T11:15:51;4.78;;;0.95;;
22064;SDS011;11197;53.110;8.468;2022-09-20T11:18:25;3.45;;;0.70;;
22064;SDS011;11197;53.110;8.468;2022-09-20T11:24:00;4.90;;;0.80;;
22064;SDS011;11197;53.110;8.468;2022-09-20T11:29:27;5.78;;;1.02;;
22064;SDS011;11197;53.110;8.468;2022-09-20T11:32:20;3.78;;;1.25;;
22064;SDS011;11197;53.110;8.468;2022-09-20T11:37:49;2.85;;;0.88;;
22064;SDS011;11197;53.110;8.468;2022-09-20T11:40:33;4.43;;;0.90;;
22064;SDS011;11197;53.110;8.468;2022-09-20T11:43:05;4.15;;;0.90;;
22064;SDS011;11197;53.110;8.468;2022-09-20T11:45:33;3.95;;;1.00;;
22064;SDS011;11197;53.110;8.468;2022-09-20T11:48:24;5.35;;;0.90;;
22064;SDS011;11197;53.110;8.468;2022-09-20T11:56:23;4.15;;;0.95;;
22064;SDS011;11197;53.110;8.468;2022-09-20T11:58:51;3.13;;;0.80;;
22064;SDS011;11197;53.110;8.468;2022-09-20T12:03:58;3.15;;;0.80;;
22064;SDS011;11197;53.110;8.468;2022-09-20T12:06:37;2.95;;;0.68;;
22064;SDS011;11197;53.110;8.468;2022-09-20T12:11:52;5.72;;;1.02;;
22064;SDS011;11197;53.110;8.468;2022-09-20T12:14:24;5.32;;;0.95;;
22064;SDS011;11197;53.110;8.468;2022-09-20T12:16:52;3.65;;;1.00;;
22064;SDS011;11197;53.110;8.468;2022-09-20T12:24:27;6.72;;;1.25;;
22064;SDS011;11197;53.110;8.468;2022-09-20T12:26:56;4.50;;;1.10;;
22064;SDS011;11197;53.110;8.468;2022-09-20T12:31:56;4.47;;;1.10;;
22064;SDS011;11197;53.110;8.468;2022-09-20T12:34:32;4.15;;;0.98;;
22064;SDS011;11197;53.110;8.468;2022-09-20T12:41:58;5.28;;;1.05;;
22064;SDS011;11197;53.110;8.468;2022-09-20T12:44:33;3.33;;;0.73;;
22064;SDS011;11197;53.110;8.468;2022-09-20T12:52:27;4.63;;;0.70;;
22064;SDS011;11197;53.110;8.468;2022-09-20T13:11:37;3.90;;;0.70;;
22064;SDS011;11197;53.110;8.468;2022-09-20T13:14:11;3.83;;;0.60;;
22064;SDS011;11197;53.110;8.468;2022-09-20T13:19:26;4.95;;;0.80;;
22064;SDS011;11197;53.110;8.468;2022-09-20T13:22:19;4.82;;;1.05;;
22064;SDS011;11197;53.110;8.468;2022-09-20T13:24:59;5.82;;;0.90;;
22064;SDS011;11197;53.110;8.468;2022-09-20T13:32:41;6.22;;;0.90;;
22064;SDS011;11197;53.110;8.468;2022-09-20T13:37:37;8.52;;;1.20;;
22064;SDS011;11197;53.110;8.468;2022-09-20T13:42:42;4.88;;;0.70;;
22064;SDS011;11197;53.110;8.468;2022-09-20T13:45:11;8.00;;;1.00;;
22064;SDS011;11197;53.110;8.468;2022-09-20T13:47:40;3.35;;;0.80;;
22064;SDS011;11197;53.110;8.468;2022-09-20T13:50:22;7.18;;;0.85;;
22064;SDS011;11197;53.110;8.468;2022-09-20T13:52:55;6.53;;;1.13;;
22064;SDS011;11197;53.110;8.468;2022-09-20T13:55:28;4.55;;;0.75;;
22064;SDS011;11197;53.110;8.468;2022-09-20T13:57:56;4.35;;;0.88;;
22064;SDS011;11197;53.110;8.468;2022-09-20T14:00:27;5.95;;;1.30;;
22064;SDS011;11197;53.110;8.468;2022-09-20T14:02:56;6.80;;;0.98;;
22064;SDS011;11197;53.110;8.468;2022-09-20T14:05:24;4.90;;;1.05;;
22064;SDS011;11197;53.110;8.468;2022-09-20T14:07:51;4.35;;;0.80;;
22064;SDS011;11197;53.110;8.468;2022-09-20T14:10:35;7.32;;;1.13;;
22064;SDS011;11197;53.110;8.468;2022-09-20T14:13:07;5.63;;;0.95;;
22064;SDS011;11197;53.110;8.468;2022-09-20T14:15:43;3.13;;;0.75;;
22064;SDS011;11197;53.110;8.468;2022-09-20T14:18:16;5.53;;;1.30;;
22064;SDS011;11197;53.110;8.468;2022-09-20T14:20:45;5.68;;;0.88;;
22064;SDS011;11197;53.110;8.468;2022-09-20T14:23:18;5.43;;;1.23;;
22064;SDS011;11197;53.110;8.468;2022-09-20T14:28:44;6.35;;;0.85;;
22064;SDS011;11197;53.110;8.468;2022-09-20T14:31:19;7.17;;;0.90;;
22064;SDS011;11197;53.110;8.468;2022-09-20T14:33:54;5.03;;;0.70;;
22064;SDS011;11197;53.110;8.468;2022-09-20T14:36:24;4.17;;;0.70;;
22064;SDS011;11197;53.110;8.468;2022-09-20T14:38:53;7.03;;;1.00;;
22064;SDS011;11197;53.110;8.468;2022-09-20T14:41:25;7.25;;;1.00;;
22064;SDS011;11197;53.110;8.468;2022-09-20T14:43:56;5.18;;;0.80;;
22064;SDS011;11197;53.110;8.468;2022-09-20T14:46:36;3.60;;;0.82;;
22064;SDS011;11197;53.110;8.468;2022-09-20T14:51:51;5.28;;;0.82;;
22064;SDS011;11197;53.110;8.468;2022-09-20T14:54:23;4.85;;;0.70;;
22064;SDS011;11197;53.110;8.468;2022-09-20T14:56:51;4.80;;;0.60;;
22064;SDS011;11197;53.110;8.468;2022-09-20T14:59:20;6.95;;;0.82;;
22064;SDS011;11197;53.110;8.468;2022-09-20T15:01:55;4.03;;;0.63;;
22064;SDS011;11197;53.110;8.468;2022-09-20T15:04:27;4.80;;;0.73;;
22064;SDS011;11197;53.110;8.468;2022-09-20T15:06:56;7.95;;;0.90;;
22064;SDS011;11197;53.110;8.468;2022-09-20T15:09:28;3.90;;;0.65;;
22064;SDS011;11197;53.110;8.468;2022-09-20T15:12:01;5.85;;;1.00;;
22064;SDS011;11197;53.110;8.468;2022-09-20T15:14:29;5.15;;;0.75;;
22064;SDS011;11197;53.110;8.468;2022-09-20T15:16:56;6.00;;;0.80;;
22064;SDS011;11197;53.110;8.468;2022-09-20T15:19:24;4.75;;;0.80;;
22064;SDS011;11197;53.110;8.468;2022-09-20T15:21:51;4.07;;;0.80;;
22064;SDS011;11197;53.110;8.468;2022-09-20T15:24:17;5.90;;;1.10;;
22064;SDS011;11197;53.110;8.468;2022-09-20T15:26:45;6.20;;;0.93;;
22064;SDS011;11197;53.110;8.468;2022-09-20T15:29:14;2.45;;;0.52;;
22064;SDS011;11197;53.110;8.468;2022-09-20T15:34:09;7.00;;;1.10;;
22064;SDS011;11197;53.110;8.468;2022-09-20T15:36:37;5.28;;;0.98;;
22064;SDS011;11197;53.110;8.468;2022-09-20T15:39:03;6.35;;;0.90;;
22064;SDS011;11197;53.110;8.468;2022-09-20T15:41:30;6.25;;;1.10;;
22064;SDS011;11197;53.110;8.468;2022-09-20T15:43:56;4.63;;;1.02;;
22064;SDS011;11197;53.110;8.468;2022-09-20T15:46:23;9.25;;;1.10;;
22064;SDS011;11197;53.110;8.468;2022-09-20T15:48:54;7.68;;;1.20;;
22064;SDS011;11197;53.110;8.468;2022-09-20T15:51:20;5.15;;;1.13;;
22064;SDS011;11197;53.110;8.468;2022-09-20T15:53:54;5.70;;;1.00;;
22064;SDS011;11197;53.110;8.468;2022-09-20T15:56:29;4.40;;;1.05;;
22064;SDS011;11197;53.110;8.468;2022-09-20T15:59:08;4.93;;;1.30;;
22064;SDS011;11197;53.110;8.468;2022-09-20T16:01:39;5.88;;;1.13;;
22064;SDS011;11197;53.110;8.468;2022-09-20T16:04:08;6.45;;;1.00;;
22064;SDS011;11197;53.110;8.468;2022-09-20T16:06:39;6.47;;;1.25;;
22064;SDS011;11197;53.110;8.468;2022-09-20T16:09:06;5.55;;;1.33;;
22064;SDS011;11197;53.110;8.468;2022-09-20T16:11:32;6.78;;;1.42;;
22064;SDS011;11197;53.110;8.468;2022-09-20T16:13:59;9.93;;;1.70;;
22064;SDS011;11197;53.110;8.468;2022-09-20T16:16:27;7.00;;;1.50;;
22064;SDS011;11197;53.110;8.468;2022-09-20T16:18:54;4.82;;;1.00;;
22064;SDS011;11197;53.110;8.468;2022-09-20T16:21:39;5.28;;;1.10;;
22064;SDS011;11197;53.110;8.468;2022-09-20T16:24:07;6.22;;;1.13;;
22064;SDS011;11197;53.110;8.468;2022-09-20T16:26:34;7.50;;;1.48;;
22064;SDS011;11197;53.110;8.468;2022-09-20T16:29:01;7.75;;;1.25;;
22064;SDS011;11197;53.110;8.468;2022-09-20T16:36:39;10.13;;;1.58;;
22064;SDS011;11197;53.110;8.468;2022-09-20T16:39:06;8.55;;;1.42;;
22064;SDS011;11197;53.110;8.468;2022-09-20T16:41:33;9.13;;;1.35;;
22064;SDS011;11197;53.110;8.468;2022-09-20T16:44:00;4.90;;;1.20;;
22064;SDS011;11197;53.110;8.468;2022-09-20T16:46:27;8.02;;;1.50;;
22064;SDS011;11197;53.110;8.468;2022-09-20T16:48:54;11.77;;;1.95;;
22064;SDS011;11197;53.110;8.468;2022-09-20T16:51:22;8.13;;;1.58;;
22064;SDS011;11197;53.110;8.468;2022-09-20T16:53:53;7.75;;;1.55;;
22064;SDS011;11197;53.110;8.468;2022-09-20T16:56:20;9.27;;;1.90;;
22064;SDS011;11197;53.110;8.468;2022-09-20T16:58:49;4.68;;;1.33;;
22064;SDS011;11197;53.110;8.468;2022-09-20T17:01:15;7.50;;;1.60;;
22064;SDS011;11197;53.110;8.468;2022-09-20T17:03:42;6.43;;;1.25;;
22064;SDS011;11197;53.110;8.468;2022-09-20T17:06:09;7.20;;;1.42;;
22064;SDS011;11197;53.110;8.468;2022-09-20T17:08:36;6.25;;;1.42;;
22064;SDS011;11197;53.110;8.468;2022-09-20T17:11:08;7.40;;;1.50;;
22064;SDS011;11197;53.110;8.468;2022-09-20T17:13:42;7.03;;;1.77;;
22064;SDS011;11197;53.110;8.468;2022-09-20T17:16:12;7.65;;;1.90;;
22064;SDS011;11197;53.110;8.468;2022-09-20T17:18:40;9.68;;;1.98;;
22064;SDS011;11197;53.110;8.468;2022-09-20T17:21:08;7.00;;;1.60;;
22064;SDS011;11197;53.110;8.468;2022-09-20T17:26:06;5.53;;;1.90;;
22064;SDS011;11197;53.110;8.468;2022-09-20T17:28:37;7.28;;;2.42;;
22064;SDS011;11197;53.110;8.468;2022-09-20T17:31:05;10.20;;;4.82;;
22064;SDS011;11197;53.110;8.468;2022-09-20T17:33:33;17.52;;;9.45;;
22064;SDS011;11197;53.110;8.468;2022-09-20T17:36:00;19.83;;;10.57;;
22064;SDS011;11197;53.110;8.468;2022-09-20T17:38:28;19.00;;;9.95;;
22064;SDS011;11197;53.110;8.468;2022-09-20T17:41:19;16.60;;;10.03;;
22064;SDS011;11197;53.110;8.468;2022-09-20T17:43:45;18.27;;;10.30;;
22064;SDS011;11197;53.110;8.468;2022-09-20T17:46:15;16.08;;;9.57;;
22064;SDS011;11197;53.110;8.468;2022-09-20T17:48:47;17.48;;;10.85;;
22064;SDS011;11197;53.110;8.468;2022-09-20T17:51:16;14.88;;;8.20;;
22064;SDS011;11197;53.110;8.468;2022-09-20T17:53:44;13.40;;;6.43;;
22064;SDS011;11197;53.110;8.468;2022-09-20T17:56:11;13.50;;;5.18;;
22064;SDS011;11197;53.110;8.468;2022-09-20T17:58:38;8.18;;;4.22;;
22064;SDS011;11197;53.110;8.468;2022-09-20T18:01:06;9.65;;;4.13;;
22064;SDS011;11197;53.110;8.468;2022-09-20T18:03:39;10.98;;;4.05;;
22064;SDS011;11197;53.110;8.468;2022-09-20T18:06:12;8.05;;;3.70;;
22064;SDS011;11197;53.110;8.468;2022-09-20T18:08:51;9.45;;;4.78;;
22064;SDS011;11197;53.110;8.468;2022-09-20T18:11:19;12.35;;;5.53;;
22064;SDS011;11197;53.110;8.468;2022-09-20T18:13:47;10.50;;;5.22;;
22064;SDS011;11197;53.110;8.468;2022-09-20T18:16:14;8.27;;;4.15;;
22064;SDS011;11197;53.110;8.468;2022-09-20T18:18:42;6.85;;;3.70;;
22064;SDS011;11197;53.110;8.468;2022-09-20T18:21:21;7.30;;;3.25;;
22064;SDS011;11197;53.110;8.468;2022-09-20T18:23:49;6.78;;;3.50;;
22064;SDS011;11197;53.110;8.468;2022-09-20T18:26:17;6.68;;;3.40;;
22064;SDS011;11197;53.110;8.468;2022-09-20T18:29:06;7.38;;;3.80;;
22064;SDS011;11197;53.110;8.468;2022-09-20T18:31:37;9.13;;;3.78;;
22064;SDS011;11197;53.110;8.468;2022-09-20T18:34:09;8.27;;;4.15;;
22064;SDS011;11197;53.110;8.468;2022-09-20T18:36:42;7.93;;;3.60;;
22064;SDS011;11197;53.110;8.468;2022-09-20T18:39:30;7.93;;;3.63;;
22064;SDS011;11197;53.110;8.468;2022-09-20T18:41:57;7.90;;;4.00;;
22064;SDS011;11197;53.110;8.468;2022-09-20T18:44:24;6.78;;;3.67;;
22064;SDS011;11197;53.110;8.468;2022-09-20T18:46:51;8.70;;;3.80;;
22064;SDS011;11197;53.110;8.468;2022-09-20T18:49:19;8.82;;;4.00;;
22064;SDS011;11197;53.110;8.468;2022-09-20T18:51:46;8.05;;;3.90;;
22064;SDS011;11197;53.110;8.468;2022-09-20T18:54:12;6.90;;;3.90;;
22064;SDS011;11197;53.110;8.468;2022-09-20T18:56:42;6.47;;;4.03;;
22064;SDS011;11197;53.110;8.468;2022-09-20T18:59:19;9.18;;;4.32;;
22064;SDS011;11197;53.110;8.468;2022-09-20T19:20:45;7.38;;;3.50;;
22064;SDS011;11197;53.110;8.468;2022-09-20T19:25:49;6.53;;;3.53;;
22064;SDS011;11197;53.110;8.468;2022-09-20T19:28:39;8.63;;;4.47;;
22064;SDS011;11197;53.110;8.468;2022-09-20T19:31:08;7.60;;;4.35;;
22064;SDS011;11197;53.110;8.468;2022-09-20T19:33:43;7.38;;;3.97;;
22064;SDS011;11197;53.110;8.468;2022-09-20T19:36:12;8.90;;;4.20;;
22064;SDS011;11197;53.110;8.468;2022-09-20T19:46:46;9.80;;;4.22;;
22064;SDS011;11197;53.110;8.468;2022-09-20T19:52:21;9.63;;;5.50;;
22064;SDS011;11197;53.110;8.468;2022-09-20T19:54:51;9.63;;;5.78;;
22064;SDS011;11197;53.110;8.468;2022-09-20T19:57:21;9.23;;;5.68;;
22064;SDS011;11197;53.110;8.468;2022-09-20T19:59:52;9.90;;;5.93;;
22064;SDS011;11197;53.110;8.468;2022-09-20T20:02:20;9.20;;;5.45;;
22064;SDS011;11197;53.110;8.468;2022-09-20T20:04:46;10.73;;;6.35;;
22064;SDS011;11197;53.110;8.468;2022-09-20T20:12:31;9.13;;;5.93;;
22064;SDS011;11197;53.110;8.468;2022-09-20T20:15:28;9.35;;;5.95;;
22064;SDS011;11197;53.110;8.468;2022-09-20T20:20:55;11.52;;;6.47;;
22064;SDS011;11197;53.110;8.468;2022-09-20T20:25:59;11.50;;;6.63;;
22064;SDS011;11197;53.110;8.468;2022-09-20T20:28:34;13.27;;;6.10;;
22064;SDS011;11197;53.110;8.468;2022-09-20T20:31:01;11.98;;;6.30;;
22064;SDS011;11197;53.110;8.468;2022-09-20T20:33:29;10.45;;;6.10;;
22064;SDS011;11197;53.110;8.468;2022-09-20T20:35:58;11.00;;;6.10;;
22064;SDS011;11197;53.110;8.468;2022-09-20T20:38:25;8.43;;;5.72;;
22064;SDS011;11197;53.110;8.468;2022-09-20T20:43:30;10.13;;;5.65;;
22064;SDS011;11197;53.110;8.468;2022-09-20T20:45:57;10.65;;;5.68;;
22064;SDS011;11197;53.110;8.468;2022-09-20T20:48:24;9.82;;;5.60;;
22064;SDS011;11197;53.110;8.468;2022-09-20T20:53:30;10.25;;;5.43;;
22064;SDS011;11197;53.110;8.468;2022-09-20T20:56:04;9.68;;;5.60;;
22064;SDS011;11197;53.110;8.468;2022-09-20T20:58:35;10.43;;;5.05;;
22064;SDS011;11197;53.110;8.468;2022-09-20T21:01:05;8.57;;;5.05;;
22064;SDS011;11197;53.110;8.468;2022-09-20T21:03:38;7.03;;;4.70;;
22064;SDS011;11197;53.110;8.468;2022-09-20T21:06:07;9.60;;;4.43;;
22064;SDS011;11197;53.110;8.468;2022-09-20T21:08:35;9.60;;;4.90;;
22064;SDS011;11197;53.110;8.468;2022-09-20T21:11:04;9.27;;;4.80;;
22064;SDS011;11197;53.110;8.468;2022-09-20T21:13:35;9.07;;;4.80;;
22064;SDS011;11197;53.110;8.468;2022-09-20T21:18:38;7.90;;;4.72;;
22064;SDS011;11197;53.110;8.468;2022-09-20T21:21:39;6.57;;;4.20;;
22064;SDS011;11197;53.110;8.468;2022-09-20T21:24:00;8.48;;;4.40;;
22064;SDS011;11197;53.110;8.468;2022-09-20T21:26:29;9.52;;;4.40;;
22064;SDS011;11197;53.110;8.468;2022-09-20T21:31:29;7.43;;;4.03;;
22064;SDS011;11197;53.110;8.468;2022-09-20T21:33:57;7.28;;;4.15;;
22064;SDS011;11197;53.110;8.468;2022-09-20T21:36:25;8.20;;;4.03;;
22064;SDS011;11197;53.110;8.468;2022-09-20T21:38:52;8.25;;;4.10;;
22064;SDS011;11197;53.110;8.468;2022-09-20T21:43:52;7.57;;;3.95;;
22064;SDS011;11197;53.110;8.468;2022-09-20T21:46:24;7.22;;;3.95;;
22064;SDS011;11197;53.110;8.468;2022-09-20T21:48:52;7.75;;;3.97;;
22064;SDS011;11197;53.110;8.468;2022-09-20T21:51:20;6.25;;;3.90;;
22064;SDS011;11197;53.110;8.468;2022-09-20T21:53:46;7.80;;;4.25;;
22064;SDS011;11197;53.110;8.468;2022-09-20T21:56:14;6.13;;;4.10;;
22064;SDS011;11197;53.110;8.468;2022-09-20T21:58:44;9.82;;;4.57;;
22064;SDS011;11197;53.110;8.468;2022-09-20T22:01:15;8.20;;;4.38;;
22064;SDS011;11197;53.110;8.468;2022-09-20T22:03:52;6.80;;;4.20;;
22064;SDS011;11197;53.110;8.468;2022-09-20T22:06:22;6.68;;;4.28;;
22064;SDS011;11197;53.110;8.468;2022-09-20T22:08:55;7.72;;;4.32;;
22064;SDS011;11197;53.110;8.468;2022-09-20T22:11:24;7.40;;;4.40;;